sensor_id;sensor_type;location;lat;lon;timestamp;pressure;altitude;pressure_sealevel;temperature;humidity
40612;BME280;26317;44.894;20.286;2023-02-19T00:00:47;101139.16;;;8.84;70.39
40612;BME280;26317;44.894;20.286;2023-02-19T00:03:23;101163.63;;;8.92;70.78
40612;BME280;26317;44.894;20.286;2023-02-19T00:06:01;101149.22;;;8.93;70.96
40612;BME280;26317;44.894;20.286;2023-02-19T00:08:45;101155.19;;;9.00;71.19
40612;BME280;26317;44.894;20.286;2023-02-19T00:11:32;101170.75;;;9.03;71.03
40612;BME280;26317;44.894;20.286;2023-02-19T00:14:06;101169.47;;;9.06;71.41
40612;BME280;26317;44.894;20.286;2023-02-19T00:16:52;101175.19;;;9.14;71.22
40612;BME280;26317;44.894;20.286;2023-02-19T00:19:30;101154.94;;;9.02;71.13
40612;BME280;26317;44.894;20.286;2023-02-19T00:22:34;101185.44;;;9.17;71.41
40612;BME280;26317;44.894;20.286;2023-02-19T00:25:12;101175.69;;;9.11;71.70
40612;BME280;26317;44.894;20.286;2023-02-19T00:27:48;101175.19;;;9.14;71.67
40612;BME280;26317;44.894;20.286;2023-02-19T00:30:30;101197.81;;;9.23;72.11
40612;BME280;26317;44.894;20.286;2023-02-19T00:33:10;101202.19;;;9.30;71.62
40612;BME280;26317;44.894;20.286;2023-02-19T00:35:50;101176.09;;;9.20;71.90
40612;BME280;26317;44.894;20.286;2023-02-19T00:38:36;101199.41;;;9.41;71.76
40612;BME280;26317;44.894;20.286;2023-02-19T00:41:09;101203.47;;;9.44;71.79
40612;BME280;26317;44.894;20.286;2023-02-19T00:43:56;101202.72;;;9.48;71.45
40612;BME280;26317;44.894;20.286;2023-02-19T00:46:35;101211.94;;;9.57;71.21
40612;BME280;26317;44.894;20.286;2023-02-19T00:49:17;101205.31;;;9.60;70.73
40612;BME280;26317;44.894;20.286;2023-02-19T00:51:55;101201.31;;;9.62;70.44
40612;BME280;26317;44.894;20.286;2023-02-19T00:54:34;101205.84;;;9.62;69.96
40612;BME280;26317;44.894;20.286;2023-02-19T00:57:12;101213.34;;;9.60;69.38
40612;BME280;26317;44.894;20.286;2023-02-19T00:59:43;101195.06;;;9.57;69.12
40612;BME280;26317;44.894;20.286;2023-02-19T01:02:15;101198.75;;;9.51;69.44
40612;BME280;26317;44.894;20.286;2023-02-19T01:05:01;101175.44;;;9.30;69.67
40612;BME280;26317;44.894;20.286;2023-02-19T01:07:40;101205.09;;;9.45;69.81
40612;BME280;26317;44.894;20.286;2023-02-19T01:10:21;101210.44;;;9.45;69.90
40612;BME280;26317;44.894;20.286;2023-02-19T01:12:58;101207.69;;;9.40;70.01
40612;BME280;26317;44.894;20.286;2023-02-19T01:15:38;101209.00;;;9.37;70.23
40612;BME280;26317;44.894;20.286;2023-02-19T01:18:20;101209.19;;;9.31;70.43
40612;BME280;26317;44.894;20.286;2023-02-19T01:21:06;101200.03;;;9.27;70.62
40612;BME280;26317;44.894;20.286;2023-02-19T01:23:46;101178.69;;;9.15;70.42
40612;BME280;26317;44.894;20.286;2023-02-19T01:26:30;101203.47;;;9.27;70.56
40612;BME280;26317;44.894;20.286;2023-02-19T01:29:14;101193.03;;;9.26;70.03
40612;BME280;26317;44.894;20.286;2023-02-19T01:31:54;101192.66;;;9.17;70.07
40612;BME280;26317;44.894;20.286;2023-02-19T01:34:34;101197.91;;;9.12;69.97
40612;BME280;26317;44.894;20.286;2023-02-19T01:37:14;101198.66;;;9.07;69.92
40612;BME280;26317;44.894;20.286;2023-02-19T01:39:51;101196.22;;;9.06;69.87
40612;BME280;26317;44.894;20.286;2023-02-19T01:42:31;101198.00;;;9.00;69.81
40612;BME280;26317;44.894;20.286;2023-02-19T01:45:25;101192.03;;;8.93;69.79
40612;BME280;26317;44.894;20.286;2023-02-19T01:48:02;101195.75;;;8.92;69.92
40612;BME280;26317;44.894;20.286;2023-02-19T01:50:40;101199.16;;;8.88;69.95
40612;BME280;26317;44.894;20.286;2023-02-19T01:53:18;101195.56;;;8.82;69.44
40612;BME280;26317;44.894;20.286;2023-02-19T01:56:02;101166.31;;;8.59;70.16
40612;BME280;26317;44.894;20.286;2023-02-19T01:58:47;101166.22;;;8.54;70.19
40612;BME280;26317;44.894;20.286;2023-02-19T02:01:23;101187.78;;;8.64;70.21
40612;BME280;26317;44.894;20.286;2023-02-19T02:03:56;101190.28;;;8.54;70.66
40612;BME280;26317;44.894;20.286;2023-02-19T02:07:00;101178.59;;;8.43;70.68
40612;BME280;26317;44.894;20.286;2023-02-19T02:09:58;101190.00;;;8.39;71.23
40612;BME280;26317;44.894;20.286;2023-02-19T02:12:45;101198.97;;;8.32;72.04
40612;BME280;26317;44.894;20.286;2023-02-19T02:15:51;101188.44;;;8.14;72.57
40612;BME280;26317;44.894;20.286;2023-02-19T02:18:43;101191.22;;;8.19;73.00
40612;BME280;26317;44.894;20.286;2023-02-19T02:24:57;101201.78;;;8.26;73.22
40612;BME280;26317;44.894;20.286;2023-02-19T02:27:48;101201.19;;;8.24;73.26
40612;BME280;26317;44.894;20.286;2023-02-19T02:30:40;101205.81;;;8.28;73.41
40612;BME280;26317;44.894;20.286;2023-02-19T02:33:23;101202.13;;;8.29;73.12
40612;BME280;26317;44.894;20.286;2023-02-19T02:36:16;101200.84;;;8.32;73.09
40612;BME280;26317;44.894;20.286;2023-02-19T02:38:51;101206.78;;;8.34;72.73
40612;BME280;26317;44.894;20.286;2023-02-19T02:41:31;101220.94;;;8.35;72.97
40612;BME280;26317;44.894;20.286;2023-02-19T02:44:05;101210.25;;;8.35;73.09
40612;BME280;26317;44.894;20.286;2023-02-19T02:46:54;101209.66;;;8.32;73.04
40612;BME280;26317;44.894;20.286;2023-02-19T02:49:33;101207.00;;;8.32;73.09
40612;BME280;26317;44.894;20.286;2023-02-19T02:52:37;101204.91;;;8.35;73.20
40612;BME280;26317;44.894;20.286;2023-02-19T02:55:32;101186.09;;;8.29;73.13
40612;BME280;26317;44.894;20.286;2023-02-19T02:58:24;101198.25;;;8.37;72.94
40612;BME280;26317;44.894;20.286;2023-02-19T03:01:18;101207.31;;;8.36;72.42
40612;BME280;26317;44.894;20.286;2023-02-19T03:04:20;101171.38;;;8.15;72.53
40612;BME280;26317;44.894;20.286;2023-02-19T03:07:03;101190.28;;;8.25;72.30
40612;BME280;26317;44.894;20.286;2023-02-19T03:09:42;101194.13;;;8.29;72.47
40612;BME280;26317;44.894;20.286;2023-02-19T03:12:19;101181.22;;;8.26;72.44
40612;BME280;26317;44.894;20.286;2023-02-19T03:15:08;101173.19;;;8.26;72.15
40612;BME280;26317;44.894;20.286;2023-02-19T03:18:00;101183.75;;;8.33;72.54
40612;BME280;26317;44.894;20.286;2023-02-19T03:20:57;101183.88;;;8.26;72.62
40612;BME280;26317;44.894;20.286;2023-02-19T03:23:34;101189.59;;;8.18;72.30
40612;BME280;26317;44.894;20.286;2023-02-19T03:26:24;101200.63;;;8.22;72.08
40612;BME280;26317;44.894;20.286;2023-02-19T03:28:57;101199.81;;;8.21;72.04
40612;BME280;26317;44.894;20.286;2023-02-19T03:31:52;101186.16;;;8.06;72.00
40612;BME280;26317;44.894;20.286;2023-02-19T03:34:34;101204.97;;;8.11;71.95
40612;BME280;26317;44.894;20.286;2023-02-19T03:37:36;101198.34;;;8.02;71.96
40612;BME280;26317;44.894;20.286;2023-02-19T03:40:16;101214.50;;;8.07;71.89
40612;BME280;26317;44.894;20.286;2023-02-19T03:43:02;101217.31;;;8.01;71.78
40612;BME280;26317;44.894;20.286;2023-02-19T03:45:51;101218.50;;;7.93;71.21
40612;BME280;26317;44.894;20.286;2023-02-19T03:48:44;101211.31;;;7.82;72.05
40612;BME280;26317;44.894;20.286;2023-02-19T03:51:34;101195.44;;;7.75;71.90
40612;BME280;26317;44.894;20.286;2023-02-19T03:54:33;101206.34;;;7.74;72.03
40612;BME280;26317;44.894;20.286;2023-02-19T03:57:29;101211.56;;;7.69;72.32
40612;BME280;26317;44.894;20.286;2023-02-19T04:00:12;101206.38;;;7.62;71.86
40612;BME280;26317;44.894;20.286;2023-02-19T04:03:01;101206.47;;;7.56;72.24
40612;BME280;26317;44.894;20.286;2023-02-19T04:05:43;101204.75;;;7.50;72.68
40612;BME280;26317;44.894;20.286;2023-02-19T04:08:29;101198.47;;;7.44;73.36
40612;BME280;26317;44.894;20.286;2023-02-19T04:11:15;101197.31;;;7.40;73.61
40612;BME280;26317;44.894;20.286;2023-02-19T04:14:06;101196.41;;;7.46;73.65
40612;BME280;26317;44.894;20.286;2023-02-19T04:16:46;101192.91;;;7.46;73.96
40612;BME280;26317;44.894;20.286;2023-02-19T04:19:25;101207.19;;;7.51;73.78
40612;BME280;26317;44.894;20.286;2023-02-19T04:22:23;101196.16;;;7.48;73.87
40612;BME280;26317;44.894;20.286;2023-02-19T04:25:00;101199.88;;;7.47;73.47
40612;BME280;26317;44.894;20.286;2023-02-19T04:27:54;101191.28;;;7.45;73.91
40612;BME280;26317;44.894;20.286;2023-02-19T04:30:29;101200.94;;;7.46;73.61
40612;BME280;26317;44.894;20.286;2023-02-19T04:33:11;101212.16;;;7.48;73.76
40612;BME280;26317;44.894;20.286;2023-02-19T04:35:48;101214.63;;;7.49;73.73
40612;BME280;26317;44.894;20.286;2023-02-19T04:38:24;101170.53;;;7.23;73.77
40612;BME280;26317;44.894;20.286;2023-02-19T04:41:01;101156.28;;;7.18;73.69
40612;BME280;26317;44.894;20.286;2023-02-19T04:43:43;101203.38;;;7.47;74.13
40612;BME280;26317;44.894;20.286;2023-02-19T04:46:29;101203.81;;;7.44;74.57
40612;BME280;26317;44.894;20.286;2023-02-19T04:49:27;101171.34;;;7.24;74.20
40612;BME280;26317;44.894;20.286;2023-02-19T04:52:11;101193.47;;;7.48;74.20
40612;BME280;26317;44.894;20.286;2023-02-19T04:54:50;101195.13;;;7.49;74.28
40612;BME280;26317;44.894;20.286;2023-02-19T04:57:24;101171.81;;;7.32;73.89
40612;BME280;26317;44.894;20.286;2023-02-19T05:00:42;101180.16;;;7.36;74.29
40612;BME280;26317;44.894;20.286;2023-02-19T05:03:17;101176.09;;;7.33;74.31
40612;BME280;26317;44.894;20.286;2023-02-19T05:06:01;101180.41;;;7.34;74.43
40612;BME280;26317;44.894;20.286;2023-02-19T05:08:38;101168.00;;;7.28;74.00
40612;BME280;26317;44.894;20.286;2023-02-19T05:11:27;101179.25;;;7.30;74.85
40612;BME280;26317;44.894;20.286;2023-02-19T05:13:59;101140.16;;;7.13;75.07
40612;BME280;26317;44.894;20.286;2023-02-19T05:16:46;101173.09;;;7.30;74.72
40612;BME280;26317;44.894;20.286;2023-02-19T05:19:24;101145.72;;;7.23;74.83
40612;BME280;26317;44.894;20.286;2023-02-19T05:22:04;101158.59;;;7.26;74.67
40612;BME280;26317;44.894;20.286;2023-02-19T05:24:47;101164.03;;;7.31;74.44
40612;BME280;26317;44.894;20.286;2023-02-19T05:27:21;101164.28;;;7.29;74.33
40612;BME280;26317;44.894;20.286;2023-02-19T05:29:58;101155.25;;;7.30;74.46
40612;BME280;26317;44.894;20.286;2023-02-19T05:32:35;101136.22;;;7.15;75.00
40612;BME280;26317;44.894;20.286;2023-02-19T05:35:10;101120.78;;;7.06;74.52
40612;BME280;26317;44.894;20.286;2023-02-19T05:38:01;101128.56;;;7.07;74.70
40612;BME280;26317;44.894;20.286;2023-02-19T05:40:42;101144.34;;;7.20;75.21
40612;BME280;26317;44.894;20.286;2023-02-19T05:43:25;101156.84;;;7.20;75.45
40612;BME280;26317;44.894;20.286;2023-02-19T05:46:10;101158.72;;;7.19;75.37
40612;BME280;26317;44.894;20.286;2023-02-19T05:48:48;101155.00;;;7.20;75.36
40612;BME280;26317;44.894;20.286;2023-02-19T05:51:27;101156.28;;;7.18;75.32
40612;BME280;26317;44.894;20.286;2023-02-19T05:54:01;101177.50;;;7.24;75.42
40612;BME280;26317;44.894;20.286;2023-02-19T05:56:35;101182.50;;;7.21;76.31
40612;BME280;26317;44.894;20.286;2023-02-19T05:59:09;101181.09;;;7.18;76.46
40612;BME280;26317;44.894;20.286;2023-02-19T06:01:54;101186.66;;;7.17;76.36
40612;BME280;26317;44.894;20.286;2023-02-19T06:04:49;101188.06;;;7.19;76.02
40612;BME280;26317;44.894;20.286;2023-02-19T06:07:23;101187.72;;;7.16;76.16
40612;BME280;26317;44.894;20.286;2023-02-19T06:09:57;101190.03;;;7.12;76.14
40612;BME280;26317;44.894;20.286;2023-02-19T06:12:38;101190.72;;;7.19;75.78
40612;BME280;26317;44.894;20.286;2023-02-19T06:15:20;101183.75;;;7.18;75.86
40612;BME280;26317;44.894;20.286;2023-02-19T06:18:03;101179.00;;;7.20;76.02
40612;BME280;26317;44.894;20.286;2023-02-19T06:20:51;101177.50;;;7.24;75.98
40612;BME280;26317;44.894;20.286;2023-02-19T06:23:33;101176.59;;;7.30;75.76
40612;BME280;26317;44.894;20.286;2023-02-19T06:26:22;101180.97;;;7.36;75.50
40612;BME280;26317;44.894;20.286;2023-02-19T06:29:00;101165.91;;;7.30;75.78
40612;BME280;26317;44.894;20.286;2023-02-19T06:31:33;101172.59;;;7.45;75.62
40612;BME280;26317;44.894;20.286;2023-02-19T06:34:32;101145.34;;;7.31;75.50
40612;BME280;26317;44.894;20.286;2023-02-19T06:37:19;101180.25;;;7.53;75.30
40612;BME280;26317;44.894;20.286;2023-02-19T06:39:58;101182.22;;;7.57;75.35
40612;BME280;26317;44.894;20.286;2023-02-19T06:42:42;101172.69;;;7.61;75.30
40612;BME280;26317;44.894;20.286;2023-02-19T06:45:22;101171.63;;;7.74;75.45
40612;BME280;26317;44.894;20.286;2023-02-19T06:47:58;101174.41;;;7.79;75.45
40612;BME280;26317;44.894;20.286;2023-02-19T06:50:34;101165.91;;;7.82;75.60
40612;BME280;26317;44.894;20.286;2023-02-19T06:53:24;101175.28;;;7.96;75.72
40612;BME280;26317;44.894;20.286;2023-02-19T06:56:02;101164.59;;;7.96;76.09
40612;BME280;26317;44.894;20.286;2023-02-19T06:58:40;101168.97;;;8.02;76.08
40612;BME280;26317;44.894;20.286;2023-02-19T07:01:18;101171.75;;;8.07;76.43
40612;BME280;26317;44.894;20.286;2023-02-19T07:04:01;101170.72;;;8.08;76.94
40612;BME280;26317;44.894;20.286;2023-02-19T07:06:42;101171.63;;;8.14;77.34
40612;BME280;26317;44.894;20.286;2023-02-19T07:09:24;101182.47;;;8.24;77.58
40612;BME280;26317;44.894;20.286;2023-02-19T07:12:11;101168.28;;;8.35;77.62
40612;BME280;26317;44.894;20.286;2023-02-19T07:14:45;101170.09;;;8.46;77.60
40612;BME280;26317;44.894;20.286;2023-02-19T07:17:29;101165.41;;;8.53;76.89
40612;BME280;26317;44.894;20.286;2023-02-19T07:20:02;101166.84;;;8.61;77.03
40612;BME280;26317;44.894;20.286;2023-02-19T07:22:40;101164.09;;;8.72;77.37
40612;BME280;26317;44.894;20.286;2023-02-19T07:25:21;101162.66;;;8.82;77.50
40612;BME280;26317;44.894;20.286;2023-02-19T07:27:59;101164.44;;;8.93;77.42
40612;BME280;26317;44.894;20.286;2023-02-19T07:30:34;101162.50;;;9.05;77.85
40612;BME280;26317;44.894;20.286;2023-02-19T07:33:11;101114.78;;;8.80;77.95
40612;BME280;26317;44.894;20.286;2023-02-19T07:35:49;101164.97;;;9.28;78.09
40612;BME280;26317;44.894;20.286;2023-02-19T07:38:43;101165.94;;;9.39;78.11
40612;BME280;26317;44.894;20.286;2023-02-19T07:41:28;101164.19;;;9.49;77.93
40612;BME280;26317;44.894;20.286;2023-02-19T07:44:03;101161.69;;;9.64;77.91
40612;BME280;26317;44.894;20.286;2023-02-19T07:46:47;101172.03;;;9.78;77.96
40612;BME280;26317;44.894;20.286;2023-02-19T07:49:30;101171.03;;;9.84;75.72
40612;BME280;26317;44.894;20.286;2023-02-19T07:52:08;101115.63;;;9.62;75.20
40612;BME280;26317;44.894;20.286;2023-02-19T07:54:49;101161.59;;;10.03;74.28
40612;BME280;26317;44.894;20.286;2023-02-19T07:57:41;101171.97;;;10.16;73.31
40612;BME280;26317;44.894;20.286;2023-02-19T08:00:18;101166.16;;;10.24;73.08
40612;BME280;26317;44.894;20.286;2023-02-19T08:03:00;101163.78;;;10.28;71.29
40612;BME280;26317;44.894;20.286;2023-02-19T08:05:39;101162.53;;;10.35;71.57
40612;BME280;26317;44.894;20.286;2023-02-19T08:08:23;101156.94;;;10.42;71.03
40612;BME280;26317;44.894;20.286;2023-02-19T08:11:08;101149.00;;;10.52;69.93
40612;BME280;26317;44.894;20.286;2023-02-19T08:14:13;101152.28;;;10.59;69.02
40612;BME280;26317;44.894;20.286;2023-02-19T08:17:01;101146.19;;;10.69;68.82
40612;BME280;26317;44.894;20.286;2023-02-19T08:19:39;101135.75;;;10.72;69.22
40612;BME280;26317;44.894;20.286;2023-02-19T08:22:29;101138.59;;;10.92;68.36
40612;BME280;26317;44.894;20.286;2023-02-19T08:25:03;101124.44;;;11.02;68.31
40612;BME280;26317;44.894;20.286;2023-02-19T08:27:39;101098.63;;;10.96;68.15
40612;BME280;26317;44.894;20.286;2023-02-19T08:30:31;101124.88;;;11.31;67.47
40612;BME280;26317;44.894;20.286;2023-02-19T08:33:23;101130.03;;;11.42;66.31
40612;BME280;26317;44.894;20.286;2023-02-19T08:36:13;101119.31;;;11.52;65.74
40612;BME280;26317;44.894;20.286;2023-02-19T08:38:54;101102.66;;;11.50;64.69
40612;BME280;26317;44.894;20.286;2023-02-19T08:41:28;101121.06;;;11.79;63.90
40612;BME280;26317;44.894;20.286;2023-02-19T08:44:06;101115.69;;;11.84;64.74
40612;BME280;26317;44.894;20.286;2023-02-19T08:46:51;101111.97;;;11.95;64.14
40612;BME280;26317;44.894;20.286;2023-02-19T08:49:27;101070.81;;;11.79;63.12
40612;BME280;26317;44.894;20.286;2023-02-19T08:52:05;101102.03;;;12.06;63.59
40612;BME280;26317;44.894;20.286;2023-02-19T08:54:41;101100.44;;;12.20;62.76
40612;BME280;26317;44.894;20.286;2023-02-19T08:57:15;101076.53;;;12.18;62.90
40612;BME280;26317;44.894;20.286;2023-02-19T09:00:19;101093.72;;;12.37;62.21
40612;BME280;26317;44.894;20.286;2023-02-19T09:03:06;101081.38;;;12.47;62.52
40612;BME280;26317;44.894;20.286;2023-02-19T09:05:41;101086.72;;;12.62;61.81
40612;BME280;26317;44.894;20.286;2023-02-19T09:08:19;101090.75;;;12.74;62.35
40612;BME280;26317;44.894;20.286;2023-02-19T09:11:05;101082.94;;;12.88;62.24
40612;BME280;26317;44.894;20.286;2023-02-19T09:13:43;101077.78;;;13.02;61.98
40612;BME280;26317;44.894;20.286;2023-02-19T09:16:18;101080.22;;;13.13;61.15
40612;BME280;26317;44.894;20.286;2023-02-19T09:19:10;101071.81;;;13.25;60.17
40612;BME280;26317;44.894;20.286;2023-02-19T09:21:49;101067.97;;;13.36;61.52
40612;BME280;26317;44.894;20.286;2023-02-19T09:24:22;101078.69;;;13.56;58.83
40612;BME280;26317;44.894;20.286;2023-02-19T09:27:13;101044.78;;;13.45;59.71
40612;BME280;26317;44.894;20.286;2023-02-19T09:29:51;101072.88;;;13.83;57.24
40612;BME280;26317;44.894;20.286;2023-02-19T09:32:31;101064.72;;;13.98;57.31
40612;BME280;26317;44.894;20.286;2023-02-19T09:35:27;101060.59;;;14.06;57.15
40612;BME280;26317;44.894;20.286;2023-02-19T09:38:12;101072.78;;;14.32;57.48
40612;BME280;26317;44.894;20.286;2023-02-19T09:40:48;101057.41;;;14.38;56.02
40612;BME280;26317;44.894;20.286;2023-02-19T09:43:26;101059.41;;;14.56;54.40
40612;BME280;26317;44.894;20.286;2023-02-19T09:46:11;101059.06;;;14.62;53.79
40612;BME280;26317;44.894;20.286;2023-02-19T09:49:04;101064.44;;;14.67;52.66
40612;BME280;26317;44.894;20.286;2023-02-19T09:54:40;101063.47;;;14.82;51.63
40612;BME280;26317;44.894;20.286;2023-02-19T09:57:15;101065.88;;;14.84;51.68
40612;BME280;26317;44.894;20.286;2023-02-19T09:59:55;101064.75;;;14.90;51.71
40612;BME280;26317;44.894;20.286;2023-02-19T10:02:49;101048.28;;;14.86;51.48
40612;BME280;26317;44.894;20.286;2023-02-19T10:05:27;101059.00;;;14.96;51.23
40612;BME280;26317;44.894;20.286;2023-02-19T10:08:06;101043.31;;;14.98;50.95
40612;BME280;26317;44.894;20.286;2023-02-19T10:10:52;101052.22;;;14.99;50.58
40612;BME280;26317;44.894;20.286;2023-02-19T10:13:30;101051.72;;;14.97;49.52
40612;BME280;26317;44.894;20.286;2023-02-19T10:16:14;101048.91;;;15.07;50.16
40612;BME280;26317;44.894;20.286;2023-02-19T10:18:57;101021.31;;;15.10;49.33
40612;BME280;26317;44.894;20.286;2023-02-19T10:21:37;101043.63;;;15.39;48.50
40612;BME280;26317;44.894;20.286;2023-02-19T10:24:18;101037.56;;;15.52;46.61
40612;BME280;26317;44.894;20.286;2023-02-19T10:26:55;101054.50;;;15.58;47.17
40612;BME280;26317;44.894;20.286;2023-02-19T10:29:33;101038.03;;;15.54;45.58
40612;BME280;26317;44.894;20.286;2023-02-19T10:32:15;101037.81;;;15.51;45.02
40612;BME280;26317;44.894;20.286;2023-02-19T10:35:14;101035.66;;;15.53;46.13
40612;BME280;26317;44.894;20.286;2023-02-19T10:37:53;101033.44;;;15.55;46.34
40612;BME280;26317;44.894;20.286;2023-02-19T10:40:32;101028.41;;;15.67;47.29
40612;BME280;26317;44.894;20.286;2023-02-19T10:43:27;101018.75;;;15.80;46.65
40612;BME280;26317;44.894;20.286;2023-02-19T10:46:13;101016.19;;;15.88;46.02
40612;BME280;26317;44.894;20.286;2023-02-19T10:48:57;101020.59;;;15.84;45.64
40612;BME280;26317;44.894;20.286;2023-02-19T10:51:37;101026.81;;;15.85;45.93
40612;BME280;26317;44.894;20.286;2023-02-19T10:54:24;101008.69;;;15.85;46.16
40612;BME280;26317;44.894;20.286;2023-02-19T11:00:26;101011.59;;;15.89;45.00
40612;BME280;26317;44.894;20.286;2023-02-19T11:03:16;101011.41;;;15.99;44.28
40612;BME280;26317;44.894;20.286;2023-02-19T11:06:17;101012.94;;;16.05;44.16
40612;BME280;26317;44.894;20.286;2023-02-19T11:08:56;101007.38;;;16.15;44.22
40612;BME280;26317;44.894;20.286;2023-02-19T11:11:33;101001.72;;;16.30;44.63
40612;BME280;26317;44.894;20.286;2023-02-19T11:14:14;101001.53;;;16.40;43.73
40612;BME280;26317;44.894;20.286;2023-02-19T11:17:16;101012.16;;;16.50;43.12
40612;BME280;26317;44.894;20.286;2023-02-19T11:20:00;101004.13;;;16.45;43.96
40612;BME280;26317;44.894;20.286;2023-02-19T11:22:39;101004.06;;;16.50;43.42
40612;BME280;26317;44.894;20.286;2023-02-19T11:25:21;101008.84;;;16.53;44.20
40612;BME280;26317;44.894;20.286;2023-02-19T11:28:29;100999.16;;;16.52;44.03
40612;BME280;26317;44.894;20.286;2023-02-19T11:31:24;100987.50;;;16.52;44.29
40612;BME280;26317;44.894;20.286;2023-02-19T11:34:25;100974.97;;;16.56;43.01
40612;BME280;26317;44.894;20.286;2023-02-19T11:37:17;100991.16;;;16.61;42.54
40612;BME280;26317;44.894;20.286;2023-02-19T11:39:55;100976.22;;;16.64;42.76
40612;BME280;26317;44.894;20.286;2023-02-19T11:42:41;100963.94;;;16.52;43.50
40612;BME280;26317;44.894;20.286;2023-02-19T11:45:46;100960.81;;;16.45;44.15
40612;BME280;26317;44.894;20.286;2023-02-19T11:48:51;100969.19;;;16.63;44.30
40612;BME280;26317;44.894;20.286;2023-02-19T11:54:43;100956.81;;;16.56;45.29
40612;BME280;26317;44.894;20.286;2023-02-19T11:57:43;100952.09;;;16.35;44.95
40612;BME280;26317;44.894;20.286;2023-02-19T12:00:29;100945.94;;;16.29;45.25
40612;BME280;26317;44.894;20.286;2023-02-19T12:03:19;100946.28;;;16.28;46.44
40612;BME280;26317;44.894;20.286;2023-02-19T12:06:09;100932.94;;;16.31;46.39
40612;BME280;26317;44.894;20.286;2023-02-19T12:09:11;100928.69;;;16.25;45.92
40612;BME280;26317;44.894;20.286;2023-02-19T12:12:17;100919.88;;;16.20;46.09
40612;BME280;26317;44.894;20.286;2023-02-19T12:15:37;100924.25;;;16.16;46.72
40612;BME280;26317;44.894;20.286;2023-02-19T12:21:18;100925.38;;;16.15;46.13
40612;BME280;26317;44.894;20.286;2023-02-19T12:24:35;100917.47;;;16.18;46.31
40612;BME280;26317;44.894;20.286;2023-02-19T12:27:21;100908.84;;;16.16;45.99
40612;BME280;26317;44.894;20.286;2023-02-19T12:30:25;100895.09;;;16.13;45.74
40612;BME280;26317;44.894;20.286;2023-02-19T12:36:12;100850.78;;;16.08;45.58
40612;BME280;26317;44.894;20.286;2023-02-19T12:39:05;100858.53;;;16.29;45.55
40612;BME280;26317;44.894;20.286;2023-02-19T12:41:49;100881.09;;;16.51;45.32
40612;BME280;26317;44.894;20.286;2023-02-19T12:44:37;100889.25;;;16.65;45.60
40612;BME280;26317;44.894;20.286;2023-02-19T12:47:16;100884.69;;;16.74;44.52
40612;BME280;26317;44.894;20.286;2023-02-19T12:49:59;100860.75;;;16.68;43.97
40612;BME280;26317;44.894;20.286;2023-02-19T12:52:38;100872.38;;;16.82;43.82
40612;BME280;26317;44.894;20.286;2023-02-19T12:55:20;100862.56;;;16.72;44.15
40612;BME280;26317;44.894;20.286;2023-02-19T12:58:12;100870.88;;;16.62;43.69
40612;BME280;26317;44.894;20.286;2023-02-19T13:00:54;100874.88;;;16.51;44.21
40612;BME280;26317;44.894;20.286;2023-02-19T13:03:39;100867.34;;;16.34;44.21
40612;BME280;26317;44.894;20.286;2023-02-19T13:06:25;100861.44;;;16.32;44.43
40612;BME280;26317;44.894;20.286;2023-02-19T13:09:10;100856.84;;;16.19;44.66
40612;BME280;26317;44.894;20.286;2023-02-19T13:11:52;100862.25;;;16.19;45.55
40612;BME280;26317;44.894;20.286;2023-02-19T13:14:35;100862.75;;;16.21;44.92
40612;BME280;26317;44.894;20.286;2023-02-19T13:17:19;100872.16;;;16.10;44.51
40612;BME280;26317;44.894;20.286;2023-02-19T13:20:06;100876.16;;;16.13;44.38
40612;BME280;26317;44.894;20.286;2023-02-19T13:22:45;100861.50;;;16.00;44.74
40612;BME280;26317;44.894;20.286;2023-02-19T13:25:47;100875.25;;;16.03;45.26
40612;BME280;26317;44.894;20.286;2023-02-19T13:28:41;100871.16;;;16.06;45.18
40612;BME280;26317;44.894;20.286;2023-02-19T13:31:50;100872.44;;;16.08;44.66
40612;BME280;26317;44.894;20.286;2023-02-19T13:34:57;100852.59;;;15.99;44.88
40612;BME280;26317;44.894;20.286;2023-02-19T13:37:32;100845.69;;;16.07;44.74
40612;BME280;26317;44.894;20.286;2023-02-19T13:40:33;100866.06;;;16.18;44.61
40612;BME280;26317;44.894;20.286;2023-02-19T13:43:22;100863.81;;;16.20;44.75
40612;BME280;26317;44.894;20.286;2023-02-19T13:45:59;100856.22;;;16.22;44.12
40612;BME280;26317;44.894;20.286;2023-02-19T13:48:37;100858.22;;;16.30;43.91
40612;BME280;26317;44.894;20.286;2023-02-19T13:51:47;100860.84;;;16.35;44.39
40612;BME280;26317;44.894;20.286;2023-02-19T13:54:25;100859.13;;;16.39;44.36
40612;BME280;26317;44.894;20.286;2023-02-19T13:57:27;100860.13;;;16.43;44.12
40612;BME280;26317;44.894;20.286;2023-02-19T14:03:28;100867.56;;;16.38;44.27
40612;BME280;26317;44.894;20.286;2023-02-19T14:06:08;100854.91;;;16.33;44.87
40612;BME280;26317;44.894;20.286;2023-02-19T14:08:48;100859.31;;;16.29;44.16
40612;BME280;26317;44.894;20.286;2023-02-19T14:14:39;100824.84;;;16.07;45.25
40612;BME280;26317;44.894;20.286;2023-02-19T14:17:26;100849.53;;;16.20;45.01
40612;BME280;26317;44.894;20.286;2023-02-19T14:20:40;100851.72;;;16.18;45.37
40612;BME280;26317;44.894;20.286;2023-02-19T14:23:22;100846.88;;;16.01;45.59
40612;BME280;26317;44.894;20.286;2023-02-19T14:25:57;100863.53;;;16.08;45.73
40612;BME280;26317;44.894;20.286;2023-02-19T14:28:35;100871.16;;;16.06;45.23
40612;BME280;26317;44.894;20.286;2023-02-19T14:31:20;100872.66;;;15.98;44.76
40612;BME280;26317;44.894;20.286;2023-02-19T14:34:00;100874.56;;;15.98;44.99
40612;BME280;26317;44.894;20.286;2023-02-19T14:36:40;100877.34;;;15.93;45.07
40612;BME280;26317;44.894;20.286;2023-02-19T14:39:26;100847.44;;;15.71;44.61